Time,TemperatureF,DewpointF,PressureIn,WindDirection,WindDirectionDegrees,WindSpeedMPH,WindSpeedGustMPH,Humidity,HourlyPrecipIn,Conditions,Clouds,dailyrainin,SoftwareType,DateUTC
2013-02-19 00:00:00,3.2,-4.1,29.97,NNW,341,22.0,29.0,71,0.00,,,0.00,Wunderground v.1.15,2013-02-19 06:00:00,
2013-02-19 00:06:00,3.2,-4.4,29.97,NW,307,18.0,29.0,70,0.00,,,0.00,Wunderground v.1.15,2013-02-19 06:06:00,
2013-02-19 00:12:00,3.0,-4.3,29.97,NNW,330,31.0,31.0,71,0.00,,,0.00,Wunderground v.1.15,2013-02-19 06:12:00,
2013-02-19 00:17:00,2.8,-4.5,29.98,NW,315,15.0,31.0,71,0.00,,,0.00,Wunderground v.1.15,2013-02-19 06:17:00,
2013-02-19 00:23:00,2.8,-4.5,29.98,NNW,330,16.0,21.0,71,0.00,,,0.00,Wunderground v.1.15,2013-02-19 06:23:00,
2013-02-19 00:28:00,2.6,-4.7,29.99,NNW,331,22.0,33.0,71,0.00,,,0.00,Wunderground v.1.15,2013-02-19 06:28:00,
2013-02-19 00:33:00,2.6,-5.0,29.99,NW,312,19.0,22.0,70,0.00,,,0.00,Wunderground v.1.15,2013-02-19 06:33:00,
2013-02-19 00:38:00,2.6,-4.7,29.99,NNW,327,29.0,29.0,71,0.00,,,0.00,Wunderground v.1.15,2013-02-19 06:38:00,
2013-02-19 00:44:00,2.6,-4.7,29.99,NW,325,21.0,22.0,71,0.00,,,0.00,Wunderground v.1.15,2013-02-19 06:44:00,
2013-02-19 00:49:00,2.4,-4.9,29.99,NNW,329,14.0,30.0,71,0.00,,,0.00,Wunderground v.1.15,2013-02-19 06:49:00,
2013-02-19 00:55:00,2.4,-4.3,29.99,NNW,342,12.0,24.0,73,0.00,,,0.00,Wunderground v.1.15,2013-02-19 06:55:00,
2013-02-19 01:00:00,2.6,-4.4,30.00,NNW,329,20.0,20.0,72,0.00,,,0.00,Wunderground v.1.15,2013-02-19 07:00:00,
2013-02-19 01:06:00,2.6,-4.7,30.00,NW,318,17.0,30.0,71,0.00,,,0.00,Wunderground v.1.15,2013-02-19 07:06:00,
2013-02-19 01:12:00,2.6,-4.4,30.00,NNW,332,17.0,21.0,72,0.00,,,0.00,Wunderground v.1.15,2013-02-19 07:12:00,
2013-02-19 01:18:00,2.6,-4.1,30.00,NW,306,19.0,21.0,73,0.00,,,0.00,Wunderground v.1.15,2013-02-19 07:18:00,
2013-02-19 01:23:00,2.8,-3.9,30.00,NW,314,14.0,18.0,73,0.00,,,0.00,Wunderground v.1.15,2013-02-19 07:23:00,
2013-02-19 01:29:00,2.6,-3.8,30.01,NNW,343,18.0,22.0,74,0.00,,,0.00,Wunderground v.1.15,2013-02-19 07:29:00,
2013-02-19 01:34:00,2.8,-3.6,30.01,NNW,327,16.0,19.0,74,0.00,,,0.00,Wunderground v.1.15,2013-02-19 07:34:00,
2013-02-19 01:40:00,2.8,-3.6,30.01,NNW,333,22.0,22.0,74,0.00,,,0.00,Wunderground v.1.15,2013-02-19 07:40:00,
2013-02-19 01:45:00,2.6,-3.5,30.02,NW,321,18.0,26.0,75,0.00,,,0.00,Wunderground v.1.15,2013-02-19 07:45:00,
2013-02-19 01:51:00,2.6,-3.2,30.02,NNW,344,20.0,20.0,76,0.00,,,0.00,Wunderground v.1.15,2013-02-19 07:51:00,
2013-02-19 01:56:00,2.6,-3.2,30.02,NNW,343,14.0,20.0,76,0.00,,,0.00,Wunderground v.1.15,2013-02-19 07:56:00,
2013-02-19 02:01:00,2.6,-3.0,30.03,NW,322,15.0,17.0,77,0.00,,,0.00,Wunderground v.1.15,2013-02-19 08:01:00,
2013-02-19 02:06:00,2.8,-2.8,30.03,NW,325,19.0,28.0,77,0.00,,,0.00,Wunderground v.1.15,2013-02-19 08:06:00,
2013-02-19 02:11:00,3.0,-3.1,30.03,NNW,342,16.0,19.0,75,0.00,,,0.00,Wunderground v.1.15,2013-02-19 08:11:00,
2013-02-19 02:16:00,2.4,-4.0,30.03,NNE,19,21.0,26.0,74,0.00,,,0.00,Wunderground v.1.15,2013-02-19 08:16:00,
2013-02-19 02:21:00,2.0,-4.7,30.03,NNW,340,25.0,27.0,73,0.00,,,0.00,Wunderground v.1.15,2013-02-19 08:21:00,
2013-02-19 02:26:00,1.7,-5.2,30.03,NNW,331,22.0,29.0,72,0.00,,,0.00,Wunderground v.1.15,2013-02-19 08:26:00,
2013-02-19 02:31:00,1.5,-5.4,30.04,NW,317,10.0,18.0,72,0.00,,,0.00,Wunderground v.1.15,2013-02-19 08:31:00,
2013-02-19 02:36:00,1.5,-5.7,30.04,NNW,347,15.0,28.0,71,0.00,,,0.00,Wunderground v.1.15,2013-02-19 08:36:00,
2013-02-19 02:41:00,1.3,-6.2,30.04,NNW,333,17.0,25.0,70,0.00,,,0.00,Wunderground v.1.15,2013-02-19 08:41:00,
2013-02-19 02:46:00,1.3,-6.2,30.04,NW,321,23.0,25.0,70,0.00,,,0.00,Wunderground v.1.15,2013-02-19 08:46:00,
2013-02-19 02:51:00,1.1,-6.7,30.04,NNW,340,19.0,27.0,69,0.00,,,0.00,Wunderground v.1.15,2013-02-19 08:51:00,
2013-02-19 02:56:00,1.1,-6.7,30.04,NW,324,21.0,30.0,69,0.00,,,0.00,Wunderground v.1.15,2013-02-19 08:56:00,
2013-02-19 03:01:00,1.1,-6.7,30.04,NNW,337,19.0,27.0,69,0.00,,,0.00,Wunderground v.1.15,2013-02-19 09:01:00,
2013-02-19 03:06:00,1.1,-6.7,30.04,NW,321,22.0,29.0,69,0.00,,,0.00,Wunderground v.1.15,2013-02-19 09:06:00,
2013-02-19 03:11:00,1.3,-6.2,30.04,NW,326,16.0,23.0,70,0.00,,,0.00,Wunderground v.1.15,2013-02-19 09:11:00,
2013-02-19 03:16:00,1.3,-5.9,30.05,NNW,342,21.0,23.0,71,0.00,,,0.00,Wunderground v.1.15,2013-02-19 09:16:00,
2013-02-19 03:21:00,1.3,-5.9,30.05,NNW,331,15.0,21.0,71,0.00,,,0.00,Wunderground v.1.15,2013-02-19 09:21:00,
2013-02-19 03:26:00,1.5,-5.2,30.05,NW,321,18.0,31.0,73,0.00,,,0.00,Wunderground v.1.15,2013-02-19 09:26:00,
2013-02-19 03:31:00,1.8,-4.6,30.04,NNW,330,19.0,22.0,74,0.00,,,0.00,Wunderground v.1.15,2013-02-19 09:31:00,
2013-02-19 03:36:00,2.2,-4.2,30.04,NNW,344,13.0,22.0,74,0.00,,,0.00,Wunderground v.1.15,2013-02-19 09:36:00,
2013-02-19 03:41:00,2.4,-3.7,30.04,NNW,331,15.0,17.0,75,0.00,,,0.00,Wunderground v.1.15,2013-02-19 09:41:00,
2013-02-19 03:46:00,2.8,-3.3,30.05,NNW,329,15.0,23.0,75,0.00,,,0.00,Wunderground v.1.15,2013-02-19 09:46:00,
2013-02-19 03:51:00,3.0,-3.4,30.05,NW,307,18.0,27.0,74,0.00,,,0.00,Wunderground v.1.15,2013-02-19 09:51:00,
2013-02-19 03:56:00,3.2,-4.1,30.05,NW,306,15.0,31.0,71,0.00,,,0.00,Wunderground v.1.15,2013-02-19 09:56:00,
2013-02-19 04:01:00,3.2,-4.4,30.05,NW,317,21.0,25.0,70,0.00,,,0.00,Wunderground v.1.15,2013-02-19 10:01:00,
2013-02-19 04:06:00,3.0,-5.2,30.05,NNW,342,19.0,34.0,68,0.00,,,0.00,Wunderground v.1.15,2013-02-19 10:06:00,
2013-02-19 04:11:00,2.6,-5.9,30.05,NW,312,17.0,23.0,67,0.00,,,0.00,Wunderground v.1.15,2013-02-19 10:11:00,
2013-02-19 04:16:00,2.4,-5.8,30.06,NW,325,14.0,24.0,68,0.00,,,0.00,Wunderground v.1.15,2013-02-19 10:16:00,
2013-02-19 04:21:00,2.6,-5.3,30.06,NW,307,17.0,23.0,69,0.00,,,0.00,Wunderground v.1.15,2013-02-19 10:21:00,
2013-02-19 04:26:00,2.8,-5.1,30.06,NNW,328,16.0,25.0,69,0.00,,,0.00,Wunderground v.1.15,2013-02-19 10:26:00,
2013-02-19 04:31:00,2.8,-5.1,30.07,NW,319,13.0,20.0,69,0.00,,,0.00,Wunderground v.1.15,2013-02-19 10:31:00,
2013-02-19 04:36:00,3.0,-4.6,30.07,WNW,298,13.0,28.0,70,0.00,,,0.00,Wunderground v.1.15,2013-02-19 10:36:00,
2013-02-19 04:41:00,3.2,-4.4,30.07,NW,325,16.0,23.0,70,0.00,,,0.00,Wunderground v.1.15,2013-02-19 10:41:00,
2013-02-19 04:46:00,3.2,-4.4,30.07,NNW,340,18.0,24.0,70,0.00,,,0.00,Wunderground v.1.15,2013-02-19 10:46:00,
2013-02-19 04:52:00,3.0,-4.9,30.07,NNW,333,29.0,29.0,69,0.00,,,0.00,Wunderground v.1.15,2013-02-19 10:52:00,
2013-02-19 04:57:00,2.8,-5.4,30.07,NNW,338,20.0,29.0,68,0.00,,,0.00,Wunderground v.1.15,2013-02-19 10:57:00,
2013-02-19 05:02:00,2.8,-5.4,30.08,NNW,332,21.0,23.0,68,0.00,,,0.00,Wunderground v.1.15,2013-02-19 11:02:00,
2013-02-19 05:07:00,2.8,-5.4,30.08,NNW,331,15.0,30.0,68,0.00,,,0.00,Wunderground v.1.15,2013-02-19 11:07:00,
2013-02-19 05:12:00,2.8,-5.1,30.08,NW,309,14.0,20.0,69,0.00,,,0.00,Wunderground v.1.15,2013-02-19 11:12:00,
2013-02-19 05:17:00,3.0,-4.6,30.08,NW,321,11.0,23.0,70,0.00,,,0.00,Wunderground v.1.15,2013-02-19 11:17:00,
2013-02-19 05:22:00,3.0,-4.0,30.08,NNW,331,16.0,20.0,72,0.00,,,0.00,Wunderground v.1.15,2013-02-19 11:22:00,
2013-02-19 05:27:00,3.4,-3.6,30.08,NW,324,18.0,26.0,72,0.00,,,0.00,Wunderground v.1.15,2013-02-19 11:27:00,
2013-02-19 05:32:00,3.2,-4.4,30.09,NNW,343,18.0,28.0,70,0.00,,,0.00,Wunderground v.1.15,2013-02-19 11:32:00,
2013-02-19 05:37:00,3.0,-4.9,30.09,NNW,331,28.0,28.0,69,0.00,,,0.00,Wunderground v.1.15,2013-02-19 11:37:00,
2013-02-19 05:42:00,3.0,-4.6,30.09,NNW,329,14.0,23.0,70,0.00,,,0.00,Wunderground v.1.15,2013-02-19 11:42:00,
2013-02-19 05:47:00,3.0,-4.3,30.10,NNW,327,16.0,24.0,71,0.00,,,0.00,Wunderground v.1.15,2013-02-19 11:47:00,
2013-02-19 05:52:00,3.2,-3.8,30.10,NNW,336,18.0,23.0,72,0.00,,,0.00,Wunderground v.1.15,2013-02-19 11:52:00,
2013-02-19 05:57:00,3.2,-3.8,30.10,NNW,344,12.0,24.0,72,0.00,,,0.00,Wunderground v.1.15,2013-02-19 11:57:00,
2013-02-19 06:02:00,3.0,-4.6,30.10,NW,307,16.0,30.0,70,0.00,,,0.00,Wunderground v.1.15,2013-02-19 12:02:00,
2013-02-19 06:07:00,2.8,-5.4,30.10,NNW,340,24.0,31.0,68,0.00,,,0.00,Wunderground v.1.15,2013-02-19 12:07:00,
2013-02-19 06:12:00,2.8,-5.4,30.10,NNW,333,22.0,33.0,68,0.00,,,0.00,Wunderground v.1.15,2013-02-19 12:12:00,
2013-02-19 06:17:00,2.6,-5.3,30.12,NNW,327,23.0,33.0,69,0.00,,,0.00,Wunderground v.1.15,2013-02-19 12:17:00,
2013-02-19 06:22:00,2.4,-5.2,30.12,NNW,339,16.0,24.0,70,0.00,,,0.00,Wunderground v.1.15,2013-02-19 12:22:00,
2013-02-19 06:27:00,2.4,-5.2,30.12,WNW,297,14.0,24.0,70,0.00,,,0.00,Wunderground v.1.15,2013-02-19 12:27:00,
2013-02-19 06:32:00,2.4,-4.9,30.12,NNW,335,15.0,19.0,71,0.00,,,0.00,Wunderground v.1.15,2013-02-19 12:32:00,
2013-02-19 06:37:00,2.4,-5.2,30.12,NNW,332,10.0,21.0,70,0.00,,,0.00,Wunderground v.1.15,2013-02-19 12:37:00,
2013-02-19 06:42:00,2.4,-4.9,30.12,NW,322,13.0,21.0,71,0.00,,,0.00,Wunderground v.1.15,2013-02-19 12:42:00,
2013-02-19 06:47:00,2.4,-4.6,30.13,NNW,327,7.0,21.0,72,0.00,,,0.00,Wunderground v.1.15,2013-02-19 12:47:00,
2013-02-19 06:52:00,2.6,-4.1,30.13,NNW,332,15.0,25.0,73,0.00,,,0.00,Wunderground v.1.15,2013-02-19 12:52:00,
2013-02-19 06:57:00,2.6,-4.7,30.13,NW,315,15.0,25.0,71,0.00,,,0.00,Wunderground v.1.15,2013-02-19 12:57:00,
2013-02-19 07:02:00,2.6,-5.0,30.13,NW,314,17.0,24.0,70,0.00,,,0.00,Wunderground v.1.15,2013-02-19 13:02:00,
2013-02-19 07:07:00,2.4,-5.8,30.13,NNW,338,13.0,25.0,68,0.00,,,0.00,Wunderground v.1.15,2013-02-19 13:07:00,
2013-02-19 07:12:00,2.4,-6.7,30.14,NW,322,13.0,20.0,65,0.00,,,0.00,Wunderground v.1.15,2013-02-19 13:12:00,
2013-02-19 07:17:00,2.4,-5.8,30.14,NW,324,13.0,22.0,68,0.00,,,0.00,Wunderground v.1.15,2013-02-19 13:17:00,
2013-02-19 07:22:00,2.6,-5.3,30.14,NW,315,11.0,19.0,69,0.00,,,0.00,Wunderground v.1.15,2013-02-19 13:22:00,
2013-02-19 07:28:00,2.6,-5.6,30.16,NW,315,22.0,28.0,68,0.00,,,0.00,Wunderground v.1.15,2013-02-19 13:28:00,
2013-02-19 07:32:00,2.6,-5.9,30.16,NW,311,20.0,22.0,67,0.00,,,0.00,Wunderground v.1.15,2013-02-19 13:32:00,
2013-02-19 07:38:00,2.8,-5.7,30.16,NNW,342,12.0,28.0,67,0.00,,,0.00,Wunderground v.1.15,2013-02-19 13:38:00,
2013-02-19 07:43:00,2.6,-5.9,30.16,NW,323,21.0,28.0,67,0.00,,,0.00,Wunderground v.1.15,2013-02-19 13:43:00,
2013-02-19 07:48:00,2.4,-6.1,30.16,NNW,336,17.0,28.0,67,0.00,,,0.00,Wunderground v.1.15,2013-02-19 13:48:00,
2013-02-19 07:53:00,2.4,-6.1,30.16,NW,322,18.0,25.0,67,0.00,,,0.00,Wunderground v.1.15,2013-02-19 13:53:00,
2013-02-19 07:58:00,2.2,-6.3,30.18,NNW,333,13.0,26.0,67,0.00,,,0.00,Wunderground v.1.15,2013-02-19 13:58:00,
2013-02-19 08:03:00,1.7,-7.0,30.18,NW,325,21.0,28.0,66,0.00,,,0.00,Wunderground v.1.15,2013-02-19 14:03:00,
2013-02-19 08:08:00,1.3,-7.4,30.18,NW,317,19.0,31.0,66,0.00,,,0.00,Wunderground v.1.15,2013-02-19 14:08:00,
2013-02-19 08:13:00,0.9,-7.5,30.18,NNW,338,17.0,23.0,67,0.00,,,0.00,Wunderground v.1.15,2013-02-19 14:13:00,
2013-02-19 08:18:00,0.7,-7.7,30.18,NW,318,26.0,26.0,67,0.00,,,0.00,Wunderground v.1.15,2013-02-19 14:18:00,
2013-02-19 08:23:00,0.5,-7.9,30.18,NW,319,11.0,20.0,67,0.00,,,0.00,Wunderground v.1.15,2013-02-19 14:23:00,
2013-02-19 08:28:00,0.0,-8.7,30.20,NNW,333,16.0,22.0,66,0.00,,,0.00,Wunderground v.1.15,2013-02-19 14:28:00,
2013-02-19 08:33:00,-0.6,-9.6,30.20,NNW,329,12.0,26.0,65,0.00,,,0.00,Wunderground v.1.15,2013-02-19 14:33:00,
2013-02-19 08:38:00,-0.6,-9.3,30.20,NW,324,20.0,26.0,66,0.00,,,0.00,Wunderground v.1.15,2013-02-19 14:38:00,
2013-02-19 08:43:00,-0.8,-9.1,30.21,NW,311,13.0,23.0,67,0.00,,,0.00,Wunderground v.1.15,2013-02-19 14:43:00,
2013-02-19 08:48:00,-1.0,-9.6,30.21,NNW,328,16.0,32.0,66,0.00,,,0.00,Wunderground v.1.15,2013-02-19 14:48:00,
2013-02-19 08:53:00,-1.6,-10.5,30.21,NNW,344,18.0,27.0,65,0.00,,,0.00,Wunderground v.1.15,2013-02-19 14:53:00,
2013-02-19 08:58:00,-1.4,-9.7,30.22,NNW,340,18.0,29.0,67,0.00,,,0.00,Wunderground v.1.15,2013-02-19 14:58:00,
2013-02-19 09:03:00,-1.2,-9.5,30.22,NW,325,21.0,24.0,67,0.00,,,0.00,Wunderground v.1.15,2013-02-19 15:03:00,
2013-02-19 09:08:00,-1.4,-9.7,30.22,NNW,330,23.0,27.0,67,0.00,,,0.00,Wunderground v.1.15,2013-02-19 15:08:00,
2013-02-19 09:13:00,-1.6,-10.2,30.24,NNW,342,12.0,27.0,66,0.00,,,0.00,Wunderground v.1.15,2013-02-19 15:13:00,
2013-02-19 09:18:00,-1.8,-10.4,30.24,NNW,333,21.0,27.0,66,0.00,,,0.00,Wunderground v.1.15,2013-02-19 15:18:00,
2013-02-19 09:23:00,-1.8,-10.7,30.24,NW,316,18.0,24.0,65,0.00,,,0.00,Wunderground v.1.15,2013-02-19 15:23:00,
2013-02-19 09:28:00,-1.4,-10.0,30.24,WNW,303,16.0,24.0,66,0.00,,,0.00,Wunderground v.1.15,2013-02-19 15:28:00,
2013-02-19 09:33:00,-1.2,-9.8,30.24,NNW,327,13.0,24.0,66,0.00,,,0.00,Wunderground v.1.15,2013-02-19 15:33:00,
2013-02-19 09:38:00,-1.0,-9.6,30.24,NNW,333,13.0,24.0,66,0.00,,,0.00,Wunderground v.1.15,2013-02-19 15:38:00,
2013-02-19 09:43:00,-1.2,-9.5,30.25,NNW,328,12.0,20.0,67,0.00,,,0.00,Wunderground v.1.15,2013-02-19 15:43:00,
2013-02-19 09:48:00,-1.6,-9.9,30.25,North,350,12.0,29.0,67,0.00,,,0.00,Wunderground v.1.15,2013-02-19 15:48:00,
2013-02-19 09:53:00,-1.8,-10.7,30.25,NNW,348,21.0,28.0,65,0.00,,,0.00,Wunderground v.1.15,2013-02-19 15:53:00,
2013-02-19 09:58:00,-1.6,-10.5,30.26,NNW,334,15.0,28.0,65,0.00,,,0.00,Wunderground v.1.15,2013-02-19 15:58:00,
2013-02-19 10:03:00,-1.4,-10.0,30.26,NNW,327,19.0,26.0,66,0.00,,,0.00,Wunderground v.1.15,2013-02-19 16:03:00,
2013-02-19 10:08:00,-1.8,-10.1,30.26,NNW,331,15.0,27.0,67,0.00,,,0.00,Wunderground v.1.15,2013-02-19 16:08:00,
2013-02-19 10:13:00,-1.4,-9.7,30.26,NW,309,18.0,22.0,67,0.00,,,0.00,Wunderground v.1.15,2013-02-19 16:13:00,
2013-02-19 10:18:00,-1.2,-9.8,30.26,North,351,21.0,25.0,66,0.00,,,0.00,Wunderground v.1.15,2013-02-19 16:18:00,
2013-02-19 10:23:00,-1.2,-9.8,30.26,NNW,333,14.0,24.0,66,0.00,,,0.00,Wunderground v.1.15,2013-02-19 16:23:00,
2013-02-19 10:28:00,-1.2,-10.1,30.26,NNW,342,21.0,24.0,65,0.00,,,0.00,Wunderground v.1.15,2013-02-19 16:28:00,
2013-02-19 10:33:00,-1.0,-9.6,30.26,NNW,336,19.0,20.0,66,0.00,,,0.00,Wunderground v.1.15,2013-02-19 16:33:00,
2013-02-19 10:38:00,-0.8,-9.4,30.26,NW,315,14.0,27.0,66,0.00,,,0.00,Wunderground v.1.15,2013-02-19 16:38:00,
2013-02-19 10:43:00,-0.6,-8.9,30.27,NNW,327,15.0,23.0,67,0.00,,,0.00,Wunderground v.1.15,2013-02-19 16:43:00,
2013-02-19 10:48:00,-0.2,-8.9,30.27,NW,321,16.0,23.0,66,0.00,,,0.00,Wunderground v.1.15,2013-02-19 16:48:00,
2013-02-19 10:53:00,0.3,-8.1,30.27,NW,304,14.0,17.0,67,0.00,,,0.00,Wunderground v.1.15,2013-02-19 16:53:00,
2013-02-19 10:58:00,0.3,-9.0,30.27,NW,306,20.0,24.0,64,0.00,,,0.00,Wunderground v.1.15,2013-02-19 16:58:00,
2013-02-19 11:03:00,0.1,-8.6,30.27,NNW,337,18.0,24.0,66,0.00,,,0.00,Wunderground v.1.15,2013-02-19 17:03:00,
2013-02-19 11:08:00,0.3,-8.4,30.27,NW,325,12.0,24.0,66,0.00,,,0.00,Wunderground v.1.15,2013-02-19 17:08:00,
2013-02-19 11:14:00,0.9,-8.1,30.27,NW,316,15.0,22.0,65,0.00,,,0.00,Wunderground v.1.15,2013-02-19 17:14:00,
2013-02-19 11:19:00,1.5,-7.6,30.27,NNW,346,18.0,23.0,65,0.00,,,0.00,Wunderground v.1.15,2013-02-19 17:19:00,
2013-02-19 11:24:00,1.5,-7.2,30.27,WNW,286,15.0,23.0,66,0.00,,,0.00,Wunderground v.1.15,2013-02-19 17:24:00,
2013-02-19 11:29:00,1.8,-6.6,30.28,NNW,332,18.0,23.0,67,0.00,,,0.00,Wunderground v.1.15,2013-02-19 17:29:00,
2013-02-19 11:34:00,1.8,-7.3,30.28,NNW,329,12.0,23.0,65,0.00,,,0.00,Wunderground v.1.15,2013-02-19 17:34:00,
2013-02-19 11:39:00,2.0,-7.1,30.28,NNW,327,19.0,23.0,65,0.00,,,0.00,Wunderground v.1.15,2013-02-19 17:39:00,
2013-02-19 12:10:00,3.2,-5.6,30.29,NNW,327,17.0,17.0,66,0.00,,,0.00,Wunderground v.1.15,2013-02-19 18:10:00,
2013-02-19 12:15:00,3.0,-5.8,30.29,NNW,340,21.0,26.0,66,0.00,,,0.00,Wunderground v.1.15,2013-02-19 18:15:00,
2013-02-19 12:20:00,3.4,-5.1,30.29,NW,321,18.0,18.0,67,0.00,,,0.00,Wunderground v.1.15,2013-02-19 18:20:00,
2013-02-19 12:25:00,3.4,-5.4,30.29,WNW,302,12.0,23.0,66,0.00,,,0.00,Wunderground v.1.15,2013-02-19 18:25:00,
2013-02-19 12:30:00,3.7,-5.1,30.29,NW,308,13.0,15.0,66,0.00,,,0.00,Wunderground v.1.15,2013-02-19 18:30:00,
2013-02-19 12:35:00,4.1,-4.8,30.29,NW,321,12.0,20.0,66,0.00,,,0.00,Wunderground v.1.15,2013-02-19 18:35:00,
2013-02-19 12:40:00,4.3,-4.6,30.29,NNW,337,16.0,19.0,66,0.00,,,0.00,Wunderground v.1.15,2013-02-19 18:40:00,
2013-02-19 12:45:00,4.3,-4.2,30.29,NW,305,17.0,24.0,67,0.00,,,0.00,Wunderground v.1.15,2013-02-19 18:45:00,
2013-02-19 12:50:00,4.7,-3.9,30.29,WNW,298,16.0,19.0,67,0.00,,,0.00,Wunderground v.1.15,2013-02-19 18:50:00,
2013-02-19 12:55:00,5.0,-3.9,30.29,NNW,342,17.0,19.0,66,0.00,,,0.00,Wunderground v.1.15,2013-02-19 18:55:00,
2013-02-19 13:01:00,5.6,-3.3,30.28,NNW,333,11.0,14.0,66,0.00,,,0.00,Wunderground v.1.15,2013-02-19 19:01:00,
2013-02-19 13:06:00,5.8,-3.1,30.28,NNW,343,17.0,23.0,66,0.00,,,0.00,Wunderground v.1.15,2013-02-19 19:06:00,
2013-02-19 13:11:00,6.0,-2.9,30.28,NW,306,17.0,20.0,66,0.00,,,0.00,Wunderground v.1.15,2013-02-19 19:11:00,
2013-02-19 13:16:00,6.1,-3.2,30.28,WNW,303,20.0,21.0,65,0.00,,,0.00,Wunderground v.1.15,2013-02-19 19:16:00,
2013-02-19 13:21:00,6.5,-2.8,30.28,NNW,338,21.0,24.0,65,0.00,,,0.00,Wunderground v.1.15,2013-02-19 19:21:00,
2013-02-19 13:26:00,6.5,-2.8,30.28,NW,316,15.0,25.0,65,0.00,,,0.00,Wunderground v.1.15,2013-02-19 19:26:00,
2013-02-19 13:31:00,6.9,-2.1,30.26,WNW,299,8.0,19.0,66,0.00,,,0.00,Wunderground v.1.15,2013-02-19 19:31:00,
2013-02-19 13:36:00,7.4,-1.9,30.26,WNW,298,15.0,21.0,65,0.00,,,0.00,Wunderground v.1.15,2013-02-19 19:36:00,
2013-02-19 13:42:00,7.6,-2.1,30.26,NNW,335,18.0,22.0,64,0.00,,,0.00,Wunderground v.1.15,2013-02-19 19:42:00,
2013-02-19 13:47:00,7.7,-2.0,30.27,NNW,336,18.0,24.0,64,0.00,,,0.00,Wunderground v.1.15,2013-02-19 19:47:00,
2013-02-19 13:52:00,7.9,-1.8,30.27,WNW,295,10.0,20.0,64,0.00,,,0.00,Wunderground v.1.15,2013-02-19 19:52:00,
2013-02-19 13:57:00,7.7,-2.0,30.27,NW,325,20.0,25.0,64,0.00,,,0.00,Wunderground v.1.15,2013-02-19 19:57:00,
2013-02-19 14:02:00,8.3,-1.4,30.27,NW,319,15.0,23.0,64,0.00,,,0.00,Wunderground v.1.15,2013-02-19 20:02:00,
2013-02-19 14:07:00,8.3,-1.1,30.27,NW,317,17.0,23.0,65,0.00,,,0.00,Wunderground v.1.15,2013-02-19 20:07:00,
2013-02-19 14:12:00,8.1,-2.2,30.27,NW,307,14.0,19.0,62,0.00,,,0.00,Wunderground v.1.15,2013-02-19 20:12:00,
2013-02-19 14:17:00,8.8,-0.6,30.27,WNW,298,14.0,26.0,65,0.00,,,0.00,Wunderground v.1.15,2013-02-19 20:17:00,
2013-02-19 14:22:00,9.0,-1.1,30.27,NW,319,12.0,22.0,63,0.00,,,0.00,Wunderground v.1.15,2013-02-19 20:22:00,
2013-02-19 14:27:00,9.0,-0.7,30.27,NNW,331,17.0,22.0,64,0.00,,,0.00,Wunderground v.1.15,2013-02-19 20:27:00,
2013-02-19 14:32:00,8.4,-1.3,30.28,WNW,303,17.0,23.0,64,0.00,,,0.00,Wunderground v.1.15,2013-02-19 20:32:00,
2013-02-19 14:37:00,8.6,-1.1,30.28,NNW,340,19.0,23.0,64,0.00,,,0.00,Wunderground v.1.15,2013-02-19 20:37:00,
2013-02-19 14:42:00,8.3,-2.7,30.28,NNW,331,15.0,20.0,60,0.00,,,0.00,Wunderground v.1.15,2013-02-19 20:42:00,
2013-02-19 14:47:00,8.6,-1.4,30.28,WNW,303,16.0,22.0,63,0.00,,,0.00,Wunderground v.1.15,2013-02-19 20:47:00,
2013-02-19 14:52:00,8.4,-1.6,30.28,NNW,331,13.0,22.0,63,0.00,,,0.00,Wunderground v.1.15,2013-02-19 20:52:00,
2013-02-19 14:57:00,7.9,-3.1,30.28,North,351,21.0,25.0,60,0.00,,,0.00,Wunderground v.1.15,2013-02-19 20:57:00,
2013-02-19 15:02:00,8.3,-2.1,30.28,NNW,330,13.0,18.0,62,0.00,,,0.00,Wunderground v.1.15,2013-02-19 21:02:00,
2013-02-19 15:07:00,8.8,-1.9,30.28,NW,325,17.0,21.0,61,0.00,,,0.00,Wunderground v.1.15,2013-02-19 21:07:00,
2013-02-19 15:12:00,8.3,-2.7,30.28,NW,325,16.0,21.0,60,0.00,,,0.00,Wunderground v.1.15,2013-02-19 21:12:00,
2013-02-19 15:17:00,8.6,-2.5,30.28,NNW,337,11.0,24.0,60,0.00,,,0.00,Wunderground v.1.15,2013-02-19 21:17:00,
2013-02-19 15:22:00,8.3,-3.1,30.28,WNW,300,14.0,25.0,59,0.00,,,0.00,Wunderground v.1.15,2013-02-19 21:22:00,
2013-02-19 15:27:00,8.3,-3.1,30.28,NNW,332,26.0,26.0,59,0.00,,,0.00,Wunderground v.1.15,2013-02-19 21:27:00,
2013-02-19 15:32:00,8.3,-3.1,30.29,NW,313,16.0,24.0,59,0.00,,,0.00,Wunderground v.1.15,2013-02-19 21:32:00,
2013-02-19 15:37:00,8.3,-3.5,30.29,NNW,338,17.0,26.0,58,0.00,,,0.00,Wunderground v.1.15,2013-02-19 21:37:00,
2013-02-19 15:42:00,8.1,-3.3,30.29,NNW,340,24.0,24.0,59,0.00,,,0.00,Wunderground v.1.15,2013-02-19 21:42:00,
2013-02-19 15:47:00,8.3,-2.7,30.29,WNW,298,23.0,24.0,60,0.00,,,0.00,Wunderground v.1.15,2013-02-19 21:47:00,
2013-02-19 15:52:00,8.3,-3.1,30.29,NNW,330,15.0,26.0,59,0.00,,,0.00,Wunderground v.1.15,2013-02-19 21:52:00,
2013-02-19 15:57:00,8.6,-2.8,30.29,NNW,327,13.0,26.0,59,0.00,,,0.00,Wunderground v.1.15,2013-02-19 21:57:00,
2013-02-19 16:02:00,8.1,-3.3,30.29,NW,305,18.0,21.0,59,0.00,,,0.00,Wunderground v.1.15,2013-02-19 22:02:00,
2013-02-19 16:07:00,8.4,-2.7,30.29,WNW,289,14.0,22.0,60,0.00,,,0.00,Wunderground v.1.15,2013-02-19 22:07:00,
2013-02-19 16:12:00,8.4,-3.0,30.30,NNW,336,13.0,23.0,59,0.00,,,0.00,Wunderground v.1.15,2013-02-19 22:12:00,
2013-02-19 16:17:00,8.3,-3.1,30.30,NW,319,18.0,23.0,59,0.00,,,0.00,Wunderground v.1.15,2013-02-19 22:17:00,
2013-02-19 16:22:00,8.3,-2.7,30.30,WNW,302,20.0,20.0,60,0.00,,,0.00,Wunderground v.1.15,2013-02-19 22:22:00,
2013-02-19 16:27:00,7.9,-3.1,30.30,NW,316,16.0,25.0,60,0.00,,,0.00,Wunderground v.1.15,2013-02-19 22:27:00,
2013-02-19 16:32:00,7.9,-3.1,30.30,NW,319,20.0,21.0,60,0.00,,,0.00,Wunderground v.1.15,2013-02-19 22:32:00,
2013-02-19 16:37:00,7.9,-3.5,30.30,NW,321,17.0,25.0,59,0.00,,,0.00,Wunderground v.1.15,2013-02-19 22:37:00,
2013-02-19 16:42:00,7.7,-3.3,30.30,NNW,328,16.0,20.0,60,0.00,,,0.00,Wunderground v.1.15,2013-02-19 22:42:00,
2013-02-19 16:47:00,7.9,-3.1,30.31,NW,326,18.0,24.0,60,0.00,,,0.00,Wunderground v.1.15,2013-02-19 22:47:00,
2013-02-19 16:52:00,7.7,-3.3,30.31,NW,305,17.0,18.0,60,0.00,,,0.00,Wunderground v.1.15,2013-02-19 22:52:00,
2013-02-19 16:57:00,7.6,-3.4,30.31,NNW,329,14.0,22.0,60,0.00,,,0.00,Wunderground v.1.15,2013-02-19 22:57:00,
2013-02-19 17:02:00,7.4,-3.6,30.31,NNW,329,11.0,19.0,60,0.00,,,0.00,Wunderground v.1.15,2013-02-19 23:02:00,
2013-02-19 17:07:00,7.6,-3.4,30.31,WNW,302,11.0,19.0,60,0.00,,,0.00,Wunderground v.1.15,2013-02-19 23:07:00,
2013-02-19 17:12:00,7.4,-3.6,30.31,NNW,331,10.0,17.0,60,0.00,,,0.00,Wunderground v.1.15,2013-02-19 23:12:00,
2013-02-19 17:17:00,7.4,-3.3,30.31,NW,308,9.0,17.0,61,0.00,,,0.00,Wunderground v.1.15,2013-02-19 23:17:00,
2013-02-19 17:22:00,7.2,-3.4,30.31,NW,323,13.0,18.0,61,0.00,,,0.00,Wunderground v.1.15,2013-02-19 23:22:00,
2013-02-19 17:27:00,6.9,-3.7,30.31,NNW,340,15.0,18.0,61,0.00,,,0.00,Wunderground v.1.15,2013-02-19 23:27:00,
2013-02-19 17:33:00,6.7,-4.3,30.31,NW,310,19.0,22.0,60,0.00,,,0.00,Wunderground v.1.15,2013-02-19 23:33:00,
2013-02-19 17:38:00,6.5,-4.1,30.31,NNW,333,17.0,22.0,61,0.00,,,0.00,Wunderground v.1.15,2013-02-19 23:38:00,
2013-02-19 17:43:00,6.5,-3.8,30.31,NW,317,11.0,16.0,62,0.00,,,0.00,Wunderground v.1.15,2013-02-19 23:43:00,
2013-02-19 17:48:00,6.3,-4.3,30.31,NW,321,15.0,19.0,61,0.00,,,0.00,Wunderground v.1.15,2013-02-19 23:48:00,
2013-02-19 17:53:00,6.1,-4.1,30.31,NNW,335,14.0,14.0,62,0.00,,,0.00,Wunderground v.1.15,2013-02-19 23:53:00,
2013-02-19 17:58:00,6.0,-4.2,30.32,NW,319,14.0,19.0,62,0.00,,,0.00,Wunderground v.1.15,2013-02-19 23:58:00,
2013-02-19 18:03:00,5.8,-4.4,30.32,NNW,331,11.0,20.0,62,0.00,,,0.00,Wunderground v.1.15,2013-02-20 00:03:00,
2013-02-19 18:08:00,5.6,-4.3,30.32,NW,321,9.0,20.0,63,0.00,,,0.00,Wunderground v.1.15,2013-02-20 00:08:00,
2013-02-19 18:13:00,5.4,-4.5,30.33,NW,323,12.0,20.0,63,0.00,,,0.00,Wunderground v.1.15,2013-02-20 00:13:00,
2013-02-19 18:18:00,5.2,-4.7,30.33,NNW,330,14.0,21.0,63,0.00,,,0.00,Wunderground v.1.15,2013-02-20 00:18:00,
2013-02-19 18:23:00,5.0,-4.5,30.33,NW,325,11.0,16.0,64,0.00,,,0.00,Wunderground v.1.15,2013-02-20 00:23:00,
2013-02-19 18:28:00,5.0,-4.5,30.34,NW,304,12.0,18.0,64,0.00,,,0.00,Wunderground v.1.15,2013-02-20 00:28:00,
2013-02-19 18:33:00,4.8,-4.7,30.34,NNW,341,18.0,22.0,64,0.00,,,0.00,Wunderground v.1.15,2013-02-20 00:33:00,
2013-02-19 18:38:00,4.5,-5.0,30.34,North,349,13.0,22.0,64,0.00,,,0.00,Wunderground v.1.15,2013-02-20 00:38:00,
2013-02-19 18:43:00,4.3,-5.2,30.34,NW,323,14.0,18.0,64,0.00,,,0.00,Wunderground v.1.15,2013-02-20 00:43:00,
2013-02-19 18:48:00,4.1,-5.4,30.34,North,351,11.0,18.0,64,0.00,,,0.00,Wunderground v.1.15,2013-02-20 00:48:00,
2013-02-19 18:53:00,3.9,-5.3,30.34,North,350,11.0,16.0,65,0.00,,,0.00,Wunderground v.1.15,2013-02-20 00:53:00,
2013-02-19 18:58:00,3.7,-5.5,30.35,North,350,14.0,18.0,65,0.00,,,0.00,Wunderground v.1.15,2013-02-20 00:58:00,
2013-02-19 19:03:00,3.5,-5.6,30.35,NNW,334,12.0,18.0,65,0.00,,,0.00,Wunderground v.1.15,2013-02-20 01:03:00,
2013-02-19 19:08:00,3.5,-5.3,30.35,NNW,344,10.0,18.0,66,0.00,,,0.00,Wunderground v.1.15,2013-02-20 01:08:00,
2013-02-19 19:13:00,3.4,-5.4,30.35,NNW,344,7.0,11.0,66,0.00,,,0.00,Wunderground v.1.15,2013-02-20 01:13:00,
2013-02-19 19:18:00,3.2,-5.6,30.35,NNE,12,10.0,11.0,66,0.00,,,0.00,Wunderground v.1.15,2013-02-20 01:18:00,
2013-02-19 19:23:00,2.8,-6.0,30.35,North,351,11.0,14.0,66,0.00,,,0.00,Wunderground v.1.15,2013-02-20 01:23:00,
2013-02-19 19:28:00,2.6,-5.9,30.35,North,351,11.0,18.0,67,0.00,,,0.00,Wunderground v.1.15,2013-02-20 01:28:00,
2013-02-19 19:33:00,2.4,-6.1,30.35,NNE,14,15.0,17.0,67,0.00,,,0.00,Wunderground v.1.15,2013-02-20 01:33:00,
2013-02-19 19:38:00,2.2,-6.3,30.35,North,360,14.0,17.0,67,0.00,,,0.00,Wunderground v.1.15,2013-02-20 01:38:00,
2013-02-19 19:43:00,2.0,-6.5,30.36,NNW,341,13.0,18.0,67,0.00,,,0.00,Wunderground v.1.15,2013-02-20 01:43:00,
2013-02-19 19:48:00,2.0,-6.5,30.36,NNW,343,17.0,18.0,67,0.00,,,0.00,Wunderground v.1.15,2013-02-20 01:48:00,
2013-02-19 19:53:00,1.5,-7.2,30.36,NNE,17,24.0,24.0,66,0.00,,,0.00,Wunderground v.1.15,2013-02-20 01:53:00,
2013-02-19 19:58:00,1.3,-7.4,30.35,North,360,15.0,24.0,66,0.00,,,0.00,Wunderground v.1.15,2013-02-20 01:58:00,
2013-02-19 20:03:00,1.1,-7.6,30.35,North,360,11.0,18.0,66,0.00,,,0.00,Wunderground v.1.15,2013-02-20 02:03:00,
2013-02-19 20:08:00,0.9,-7.8,30.35,North,360,20.0,20.0,66,0.00,,,0.00,Wunderground v.1.15,2013-02-20 02:08:00,
2013-02-19 20:13:00,0.5,-8.2,30.36,North,360,11.0,16.0,66,0.00,,,0.00,Wunderground v.1.15,2013-02-20 02:13:00,
2013-02-19 20:19:00,0.5,-8.2,30.36,NNE,22,11.0,21.0,66,0.00,,,0.00,Wunderground v.1.15,2013-02-20 02:19:00,
2013-02-19 20:24:00,0.3,-8.4,30.36,North,360,15.0,16.0,66,0.00,,,0.00,Wunderground v.1.15,2013-02-20 02:24:00,
2013-02-19 20:29:00,0.1,-8.6,30.38,NNW,343,10.0,17.0,66,0.00,,,0.00,Wunderground v.1.15,2013-02-20 02:29:00,
2013-02-19 20:34:00,0.0,-8.7,30.38,NNE,16,11.0,18.0,66,0.00,,,0.00,Wunderground v.1.15,2013-02-20 02:34:00,
2013-02-19 20:39:00,-0.2,-8.9,30.38,NW,325,8.0,18.0,66,0.00,,,0.00,Wunderground v.1.15,2013-02-20 02:39:00,
2013-02-19 20:44:00,-0.2,-8.6,30.39,NNW,346,6.0,14.0,67,0.00,,,0.00,Wunderground v.1.15,2013-02-20 02:44:00,
2013-02-19 20:49:00,-0.4,-8.8,30.39,NNW,347,7.0,14.0,67,0.00,,,0.00,Wunderground v.1.15,2013-02-20 02:49:00,
2013-02-19 20:54:00,-0.8,-9.1,30.39,NNW,333,9.0,15.0,67,0.00,,,0.00,Wunderground v.1.15,2013-02-20 02:54:00,
2013-02-19 20:59:00,-0.8,-9.1,30.40,NNW,346,9.0,16.0,67,0.00,,,0.00,Wunderground v.1.15,2013-02-20 02:59:00,
2013-02-19 21:04:00,-0.8,-9.1,30.40,North,351,14.0,15.0,67,0.00,,,0.00,Wunderground v.1.15,2013-02-20 03:04:00,
2013-02-19 21:09:00,-1.0,-9.3,30.40,NNW,344,7.0,15.0,67,0.00,,,0.00,Wunderground v.1.15,2013-02-20 03:09:00,
2013-02-19 21:14:00,-1.2,-9.5,30.40,North,351,11.0,16.0,67,0.00,,,0.00,Wunderground v.1.15,2013-02-20 03:14:00,
2013-02-19 21:19:00,-1.4,-9.4,30.40,NW,325,12.0,16.0,68,0.00,,,0.00,Wunderground v.1.15,2013-02-20 03:19:00,
2013-02-19 21:24:00,-1.6,-9.6,30.40,NNW,332,13.0,14.0,68,0.00,,,0.00,Wunderground v.1.15,2013-02-20 03:24:00,
2013-02-19 21:29:00,-1.6,-9.6,30.41,North,351,12.0,16.0,68,0.00,,,0.00,Wunderground v.1.15,2013-02-20 03:29:00,
2013-02-19 21:34:00,-1.8,-9.8,30.41,North,351,11.0,13.0,68,0.00,,,0.00,Wunderground v.1.15,2013-02-20 03:34:00,
2013-02-19 21:39:00,-1.8,-9.8,30.41,NNW,339,11.0,14.0,68,0.00,,,0.00,Wunderground v.1.15,2013-02-20 03:39:00,
2013-02-19 21:44:00,-2.0,-9.7,30.42,North,351,11.0,12.0,69,0.00,,,0.00,Wunderground v.1.15,2013-02-20 03:44:00,
2013-02-19 21:49:00,-2.0,-9.7,30.42,NNE,15,10.0,12.0,69,0.00,,,0.00,Wunderground v.1.15,2013-02-20 03:49:00,
2013-02-19 21:54:00,-2.2,-9.9,30.42,NNE,14,16.0,16.0,69,0.00,,,0.00,Wunderground v.1.15,2013-02-20 03:54:00,
2013-02-19 21:59:00,-2.4,-10.1,30.42,North,350,9.0,16.0,69,0.00,,,0.00,Wunderground v.1.15,2013-02-20 03:59:00,
2013-02-19 22:04:00,-2.4,-10.1,30.42,North,360,7.0,15.0,69,0.00,,,0.00,Wunderground v.1.15,2013-02-20 04:04:00,
2013-02-19 22:09:00,-2.4,-9.8,30.42,North,351,5.0,15.0,70,0.00,,,0.00,Wunderground v.1.15,2013-02-20 04:09:00,
2013-02-19 22:14:00,-2.4,-10.1,30.42,North,360,9.0,13.0,69,0.00,,,0.00,Wunderground v.1.15,2013-02-20 04:14:00,
2013-02-19 22:19:00,-2.4,-10.1,30.42,NNW,336,7.0,14.0,69,0.00,,,0.00,Wunderground v.1.15,2013-02-20 04:19:00,
2013-02-19 22:24:00,-2.6,-10.0,30.42,NNW,340,7.0,14.0,70,0.00,,,0.00,Wunderground v.1.15,2013-02-20 04:24:00,
2013-02-19 22:29:00,-2.6,-10.0,30.42,NNW,342,7.0,14.0,70,0.00,,,0.00,Wunderground v.1.15,2013-02-20 04:29:00,
2013-02-19 22:34:00,-2.6,-10.0,30.42,North,351,6.0,13.0,70,0.00,,,0.00,Wunderground v.1.15,2013-02-20 04:34:00,
2013-02-19 22:39:00,-2.8,-10.2,30.42,NNW,340,6.0,13.0,70,0.00,,,0.00,Wunderground v.1.15,2013-02-20 04:39:00,
2013-02-19 22:44:00,-2.8,-10.2,30.42,North,11,5.0,13.0,70,0.00,,,0.00,Wunderground v.1.15,2013-02-20 04:44:00,
2013-02-19 22:49:00,-2.8,-10.2,30.42,North,360,4.0,13.0,70,0.00,,,0.00,Wunderground v.1.15,2013-02-20 04:49:00,
2013-02-19 22:54:00,-2.8,-10.2,30.42,NNW,338,4.0,13.0,70,0.00,,,0.00,Wunderground v.1.15,2013-02-20 04:54:00,
2013-02-19 22:59:00,-3.1,-10.5,30.43,NNW,344,6.0,13.0,70,0.00,,,0.00,Wunderground v.1.15,2013-02-20 04:59:00,
2013-02-19 23:00:00,-3.1,-10.5,30.43,NNW,340,5.0,6.0,70,0.00,,,0.00,Wunderground v.1.15,2013-02-20 05:00:00,
2013-02-19 23:01:00,-3.1,-10.5,30.43,North,351,7.0,7.0,70,0.00,,,0.00,Wunderground v.1.15,2013-02-20 05:01:00,
2013-02-19 23:06:00,-3.3,-10.6,30.43,North,360,5.0,11.0,70,0.00,,,0.00,Wunderground v.1.15,2013-02-20 05:06:00,
2013-02-19 23:11:00,-3.3,-10.6,30.43,North,360,11.0,13.0,70,0.00,,,0.00,Wunderground v.1.15,2013-02-20 05:11:00,
2013-02-19 23:16:00,-3.3,-10.6,30.44,NNW,345,6.0,13.0,70,0.00,,,0.00,Wunderground v.1.15,2013-02-20 05:16:00,
2013-02-19 23:21:00,-3.5,-11.1,30.44,NNW,345,9.0,14.0,69,0.00,,,0.00,Wunderground v.1.15,2013-02-20 05:21:00,
2013-02-19 23:26:00,-3.7,-11.3,30.44,North,351,6.0,14.0,69,0.00,,,0.00,Wunderground v.1.15,2013-02-20 05:26:00,
2013-02-19 23:31:00,-3.9,-11.5,30.44,North,351,7.0,11.0,69,0.00,,,0.00,Wunderground v.1.15,2013-02-20 05:31:00,
2013-02-19 23:33:00,-3.9,-11.5,30.44,NNW,339,6.0,11.0,69,0.00,,,0.00,Wunderground v.1.15,2013-02-20 05:33:00,
2013-02-19 23:38:00,-3.9,-11.5,30.44,North,360,7.0,11.0,69,0.00,,,0.00,Wunderground v.1.15,2013-02-20 05:38:00,
2013-02-19 23:43:00,-3.9,-11.5,30.45,North,351,9.0,10.0,69,0.00,,,0.00,Wunderground v.1.15,2013-02-20 05:43:00,
2013-02-19 23:48:00,-3.9,-11.5,30.45,North,360,5.0,10.0,69,0.00,,,0.00,Wunderground v.1.15,2013-02-20 05:48:00,
2013-02-19 23:53:00,-3.9,-11.5,30.45,North,360,6.0,11.0,69,0.00,,,0.00,Wunderground v.1.15,2013-02-20 05:53:00,
2013-02-19 23:58:00,-4.1,-11.7,30.45,NNW,343,9.0,12.0,69,0.00,,,0.00,Wunderground v.1.15,2013-02-20 05:58:00,